createdAt,value
2022-08-07T00:01:43.115Z,18.14
2022-08-07T00:03:51.655Z,18.19
2022-08-07T00:06:18.524Z,18.20
2022-08-07T00:08:56.062Z,18.16
2022-08-07T00:11:30.036Z,18.14
2022-08-07T00:14:00.097Z,18.11
2022-08-07T00:16:28.970Z,18.13
2022-08-07T00:18:55.774Z,18.14
2022-08-07T00:21:57.027Z,18.16
2022-08-07T00:24:10.336Z,18.19
2022-08-07T00:26:49.127Z,18.19
2022-08-07T00:29:31.361Z,18.20
2022-08-07T00:31:59.763Z,18.19
2022-08-07T00:34:27.221Z,18.16
2022-08-07T00:36:56.561Z,18.16
2022-08-07T00:39:23.404Z,18.17
2022-08-07T00:42:01.685Z,18.13
2022-08-07T00:44:31.511Z,18.11
2022-08-07T00:47:00.522Z,18.07
2022-08-07T00:50:20.696Z,18.02
2022-08-07T00:52:17.488Z,17.96
2022-08-07T00:54:44.682Z,17.95
2022-08-07T00:57:13.162Z,17.93
2022-08-07T00:59:39.967Z,17.93
2022-08-07T01:02:13.938Z,18.00
2022-08-07T01:04:47.126Z,18.03
2022-08-07T01:07:15.200Z,18.01
2022-08-07T01:10:06.350Z,17.95
2022-08-07T01:12:30.944Z,17.88
2022-08-07T01:15:01.250Z,17.79
2022-08-07T01:17:30.529Z,17.72
2022-08-07T01:20:04.791Z,17.68
2022-08-07T01:22:31.852Z,17.67
2022-08-07T01:24:59.378Z,17.71
2022-08-07T01:27:32.044Z,17.70
2022-08-07T01:29:59.811Z,17.68
2022-08-07T01:32:27.823Z,17.56
2022-08-07T01:34:56.178Z,17.58
2022-08-07T01:37:24.519Z,17.65
2022-08-07T01:39:52.259Z,17.69
2022-08-07T01:42:38.473Z,17.71
2022-08-07T01:45:15.860Z,17.76
2022-08-07T01:48:19.101Z,17.81
2022-08-07T01:50:32.689Z,17.83
2022-08-07T01:53:02.151Z,17.83
2022-08-07T01:55:44.662Z,17.81
2022-08-07T01:58:29.525Z,17.84
2022-08-07T02:01:09.512Z,17.92
2022-08-07T02:03:58.197Z,17.96
2022-08-07T02:06:31.557Z,18.00
2022-08-07T02:09:03.656Z,17.96
2022-08-07T02:12:02.806Z,17.90
2022-08-07T02:14:36.086Z,17.91
2022-08-07T02:17:10.045Z,17.92
2022-08-07T02:20:07.241Z,17.85
2022-08-07T02:22:28.099Z,17.85
2022-08-07T02:24:56.514Z,17.81
2022-08-07T02:27:34.114Z,17.82
2022-08-07T02:30:07.013Z,17.83
2022-08-07T02:32:36.246Z,17.85
2022-08-07T02:35:09.210Z,17.86
2022-08-07T02:37:44.111Z,17.87
2022-08-07T02:40:30.684Z,17.79
2022-08-07T02:43:00.462Z,17.77
2022-08-07T02:46:00.743Z,17.76
2022-08-07T02:48:17.415Z,17.77
2022-08-07T02:50:48.392Z,17.80
2022-08-07T02:53:31.311Z,17.73
2022-08-07T02:56:11.335Z,17.64
2022-08-07T02:58:47.345Z,17.56
2022-08-07T03:01:18.571Z,17.58
2022-08-07T03:03:49.760Z,17.60
2022-08-07T03:06:26.247Z,17.63
2022-08-07T03:09:01.986Z,17.60
2022-08-07T03:11:29.634Z,17.55
2022-08-07T03:14:02.075Z,17.59
2022-08-07T03:16:30.496Z,17.56
2022-08-07T03:18:59.215Z,17.52
2022-08-07T03:21:27.794Z,17.45
2022-08-07T03:24:18.089Z,17.36
2022-08-07T03:26:57.756Z,17.34
2022-08-07T03:29:30.017Z,17.42
2022-08-07T03:31:57.955Z,17.44
2022-08-07T03:34:27.946Z,17.40
2022-08-07T03:36:57.381Z,17.36
2022-08-07T03:39:59.144Z,17.41
2022-08-07T03:42:16.228Z,17.41
2022-08-07T03:44:53.190Z,17.40
2022-08-07T03:47:22.793Z,17.43
2022-08-07T03:49:52.235Z,17.46
2022-08-07T03:52:26.374Z,17.45
2022-08-07T03:55:06.564Z,17.44
2022-08-07T03:58:33.134Z,17.42
2022-08-07T04:00:29.378Z,17.40
2022-08-07T04:02:59.590Z,17.42
2022-08-07T04:05:39.769Z,17.43
2022-08-07T04:08:11.029Z,17.46
2022-08-07T04:10:42.197Z,17.47
2022-08-07T04:13:15.276Z,17.44
2022-08-07T04:15:43.870Z,17.40
2022-08-07T04:18:58.580Z,17.37
2022-08-07T04:21:01.485Z,17.39
2022-08-07T04:23:43.612Z,17.41
2022-08-07T04:26:21.837Z,17.41
2022-08-07T04:28:48.894Z,17.41
2022-08-07T04:31:19.984Z,17.43
2022-08-07T04:34:03.086Z,17.42
2022-08-07T04:36:29.780Z,17.40
2022-08-07T04:38:56.652Z,17.43
2022-08-07T04:41:25.025Z,17.45
2022-08-07T04:44:12.716Z,17.48
2022-08-07T04:47:04.787Z,17.48
2022-08-07T04:50:22.284Z,17.51
2022-08-07T04:54:05.035Z,17.54
2022-08-07T04:58:12.004Z,17.66
2022-08-07T05:00:18.968Z,17.71
2022-08-07T05:03:16.855Z,17.67
2022-08-07T05:06:19.448Z,17.67
2022-08-07T05:09:08.147Z,17.72
2022-08-07T05:11:57.315Z,17.81
2022-08-07T05:14:55.290Z,17.83
2022-08-07T05:17:50.861Z,17.87
2022-08-07T05:20:17.879Z,17.86
2022-08-07T05:22:47.767Z,17.89
2022-08-07T05:25:26.126Z,17.91
2022-08-07T05:28:20.305Z,17.91
2022-08-07T05:30:52.104Z,17.94
2022-08-07T05:33:20.789Z,18.00
2022-08-07T05:35:50.891Z,18.04
2022-08-07T05:39:01.265Z,18.03
2022-08-07T05:41:14.318Z,18.01
2022-08-07T05:44:12.268Z,18.06
2022-08-07T05:46:38.373Z,18.07
2022-08-07T05:49:12.594Z,18.12
2022-08-07T05:51:46.660Z,18.27
2022-08-07T05:54:31.564Z,18.34
2022-08-07T05:57:03.872Z,18.24
2022-08-07T05:59:42.720Z,18.32
2022-08-07T06:02:28.469Z,18.30
2022-08-07T06:04:59.463Z,18.40
2022-08-07T06:08:13.570Z,18.44
2022-08-07T06:10:15.307Z,18.40
2022-08-07T06:12:42.558Z,18.32
2022-08-07T06:15:15.243Z,18.34
2022-08-07T06:17:50.664Z,18.35
2022-08-07T06:20:31.817Z,18.49
2022-08-07T06:23:04.106Z,18.47
2022-08-07T06:25:54.873Z,18.51
2022-08-07T06:28:27.930Z,18.53
2022-08-07T06:30:56.119Z,18.58
2022-08-07T06:33:22.923Z,18.65
2022-08-07T06:36:12.796Z,18.66
2022-08-07T06:38:36.649Z,18.77
2022-08-07T06:41:12.945Z,18.80
2022-08-07T06:43:46.593Z,18.82
2022-08-07T06:46:35.052Z,19.02
2022-08-07T06:49:03.956Z,19.00
2022-08-07T06:51:34.917Z,18.91
2022-08-07T06:55:27.436Z,18.81
2022-08-07T06:56:52.270Z,18.87
2022-08-07T07:00:11.707Z,18.94
2022-08-07T07:02:49.321Z,18.96
2022-08-07T07:05:07.752Z,19.02
2022-08-07T07:07:59.379Z,19.08
2022-08-07T07:10:57.047Z,19.15
2022-08-07T07:13:56.657Z,19.13
2022-08-07T07:16:22.065Z,19.13
2022-08-07T07:18:54.325Z,19.22
2022-08-07T07:21:26.970Z,19.20
2022-08-07T07:24:12.631Z,19.28
2022-08-07T07:26:51.663Z,19.29
2022-08-07T07:29:56.456Z,19.41
2022-08-07T07:32:13.825Z,19.56
2022-08-07T07:34:45.403Z,19.56
2022-08-07T07:37:43.973Z,19.55
2022-08-07T07:40:10.234Z,19.51
2022-08-07T07:42:43.554Z,19.68
2022-08-07T07:45:24.468Z,19.86
2022-08-07T07:48:11.121Z,19.89
2022-08-07T07:50:40.153Z,19.80
2022-08-07T07:53:20.071Z,19.86
2022-08-07T07:55:57.558Z,19.94
2022-08-07T07:58:29.473Z,20.00
2022-08-07T08:00:58.709Z,20.15
2022-08-07T08:04:06.292Z,20.35
2022-08-07T08:06:17.634Z,20.51
2022-08-07T08:08:45.046Z,20.64
2022-08-07T08:11:18.046Z,20.72
2022-08-07T08:14:02.365Z,20.89
2022-08-07T08:16:39.569Z,20.88
2022-08-07T08:20:18.885Z,21.01
2022-08-07T08:22:32.700Z,21.03
2022-08-07T08:25:33.024Z,21.07
2022-08-07T08:28:12.552Z,20.94
2022-08-07T08:30:50.987Z,20.92
2022-08-07T08:33:24.947Z,21.21
2022-08-07T08:35:57.560Z,21.22
2022-08-07T08:38:34.248Z,21.35
2022-08-07T08:41:17.734Z,21.29
2022-08-07T08:44:01.743Z,21.32
2022-08-07T08:46:44.916Z,21.39
2022-08-07T08:49:32.684Z,21.43
2022-08-07T08:52:13.815Z,21.51
2022-08-07T08:55:21.284Z,21.62
2022-08-07T08:58:24.840Z,21.73
2022-08-07T09:01:15.008Z,21.74
2022-08-07T09:03:56.685Z,21.94
2022-08-07T09:06:53.535Z,21.75
2022-08-07T09:09:57.012Z,21.70
2022-08-07T09:12:31.906Z,21.76
2022-08-07T09:16:23.066Z,21.88
2022-08-07T09:18:36.775Z,21.92
2022-08-07T09:22:10.279Z,21.95
2022-08-07T09:25:14.761Z,21.97
2022-08-07T09:30:01.317Z,21.77
2022-08-07T09:31:20.644Z,21.72
2022-08-07T09:34:11.118Z,21.97
2022-08-07T09:37:03.311Z,22.03
2022-08-07T09:39:55.124Z,22.09
2022-08-07T09:42:41.318Z,21.96
2022-08-07T09:47:25.742Z,21.96
2022-08-07T09:50:01.119Z,21.84
2022-08-07T09:52:33.503Z,21.86
2022-08-07T09:56:03.176Z,21.78
2022-08-07T09:59:01.457Z,21.87
2022-08-07T10:01:52.325Z,21.65
2022-08-07T10:04:53.034Z,21.74
2022-08-07T10:07:52.906Z,21.72
2022-08-07T10:11:07.691Z,21.87
2022-08-07T10:14:00.410Z,21.88
2022-08-07T10:16:56.390Z,21.87
2022-08-07T10:19:52.790Z,21.82
2022-08-07T10:22:43.178Z,21.88
2022-08-07T10:25:43.177Z,21.91
2022-08-07T10:28:49.677Z,21.92
2022-08-07T10:32:36.438Z,22.01
2022-08-07T10:38:48.217Z,21.94
2022-08-07T10:41:52.166Z,22.02
2022-08-07T10:57:06.689Z,21.93
2022-08-07T11:00:04.140Z,21.92
2022-08-07T11:02:55.408Z,21.94
2022-08-07T11:05:48.639Z,21.94
2022-08-07T11:08:39.021Z,21.94
2022-08-07T11:11:51.781Z,22.01
2022-08-07T11:15:00.288Z,21.93
2022-08-07T11:17:43.440Z,21.98
2022-08-07T11:20:24.623Z,22.01
2022-08-07T11:23:02.854Z,22.18
2022-08-07T11:25:48.198Z,22.08
2022-08-07T11:28:33.839Z,21.93
2022-08-07T11:31:11.623Z,22.05
2022-08-07T11:34:04.031Z,22.08
2022-08-07T11:36:42.180Z,22.08
2022-08-07T11:39:59.865Z,22.04
2022-08-07T11:42:59.876Z,21.94
2022-08-07T11:45:53.666Z,22.05
2022-08-07T11:48:36.204Z,22.07
2022-08-07T11:51:46.642Z,22.11
2022-08-07T11:54:40.970Z,22.20
2022-08-07T11:57:59.387Z,22.11
2022-08-07T12:01:05.305Z,22.15
2022-08-07T12:03:53.685Z,22.13
2022-08-07T12:07:20.385Z,22.21
2022-08-07T12:09:58.746Z,22.14
2022-08-07T12:12:38.189Z,22.12
2022-08-07T12:15:35.664Z,22.04
2022-08-07T12:18:16.093Z,21.98
2022-08-07T12:21:02.044Z,22.03
2022-08-07T12:24:04.797Z,22.02
2022-08-07T12:26:40.526Z,22.02
2022-08-07T12:29:37.686Z,21.96
2022-08-07T12:33:02.246Z,21.92
2022-08-07T12:35:48.727Z,21.96
2022-08-07T12:38:38.491Z,21.91
2022-08-07T12:41:11.509Z,21.95
2022-08-07T12:44:03.734Z,21.88
2022-08-07T12:47:07.416Z,21.85
2022-08-07T12:49:53.033Z,21.63
2022-08-07T12:52:36.782Z,21.55
2022-08-07T12:55:41.288Z,21.51
2022-08-07T12:58:20.170Z,21.47
2022-08-07T13:01:07.762Z,21.48
2022-08-07T13:04:04.675Z,21.48
2022-08-07T13:08:12.826Z,21.51
2022-08-07T13:10:52.325Z,21.51
2022-08-07T13:13:50.227Z,21.40
2022-08-07T13:17:02.566Z,21.34
2022-08-07T13:20:00.789Z,21.26
2022-08-07T13:22:38.367Z,21.31
2022-08-07T13:25:24.318Z,21.39
2022-08-07T13:28:12.393Z,21.30
2022-08-07T13:30:48.973Z,21.29
2022-08-07T13:34:34.509Z,21.26
2022-08-07T13:36:25.917Z,21.21
2022-08-07T13:39:28.593Z,21.20
2022-08-07T13:42:10.153Z,21.15
2022-08-07T13:44:38.908Z,21.02
2022-08-07T13:47:09.840Z,21.03
2022-08-07T13:50:33.009Z,21.11
2022-08-07T13:52:40.930Z,21.20
2022-08-07T13:55:19.608Z,21.12
2022-08-07T13:58:28.149Z,21.09
2022-08-07T14:01:09.030Z,21.03
2022-08-07T14:04:05.280Z,21.05
2022-08-07T14:06:37.157Z,21.07
2022-08-07T14:09:07.387Z,21.07
2022-08-07T14:11:53.157Z,21.08
2022-08-07T14:14:31.537Z,21.09
2022-08-07T14:17:32.010Z,21.12
2022-08-07T14:20:41.712Z,21.11
2022-08-07T14:22:48.919Z,21.14
2022-08-07T14:25:16.931Z,21.18
2022-08-07T14:28:10.642Z,21.20
2022-08-07T14:30:37.531Z,21.02
2022-08-07T14:33:08.466Z,21.01
2022-08-07T14:35:45.308Z,20.96
2022-08-07T14:38:31.292Z,20.96
2022-08-07T14:41:04.227Z,20.91
2022-08-07T14:43:59.067Z,20.84
2022-08-07T14:46:31.040Z,20.90
2022-08-07T14:49:17.651Z,20.95
2022-08-07T14:52:04.280Z,20.91
2022-08-07T14:54:42.137Z,20.86
2022-08-07T14:57:19.580Z,20.67
2022-08-07T15:00:04.473Z,20.60
2022-08-07T15:02:34.638Z,20.66
2022-08-07T15:05:03.421Z,20.63
2022-08-07T15:10:26.369Z,20.55
2022-08-07T15:12:58.409Z,20.58
2022-08-07T15:18:46.622Z,20.71
2022-08-07T15:21:58.820Z,20.76
2022-08-07T15:27:15.423Z,20.69
2022-08-07T15:32:39.184Z,20.83
2022-08-07T15:35:12.532Z,20.89
2022-08-07T15:38:06.195Z,20.88
2022-08-07T15:40:34.133Z,20.94
2022-08-07T15:43:10.576Z,20.91
2022-08-07T15:46:05.752Z,20.97
2022-08-07T15:49:11.613Z,20.98
2022-08-07T15:54:39.477Z,20.89
2022-08-07T15:57:27.770Z,20.75
2022-08-07T16:00:00.007Z,20.74
2022-08-07T16:02:46.893Z,20.66
2022-08-07T16:05:17.528Z,20.63
2022-08-07T16:08:30.425Z,20.62
2022-08-07T16:10:57.760Z,20.64
2022-08-07T16:13:58.855Z,20.65
2022-08-07T16:16:57.212Z,20.66
2022-08-07T16:19:58.841Z,20.70
2022-08-07T16:22:37.949Z,20.69
2022-08-07T16:25:53.946Z,20.65
2022-08-07T16:30:06.977Z,20.63
2022-08-07T16:32:33.063Z,20.55
2022-08-07T16:35:58.614Z,20.56
2022-08-07T16:39:00.556Z,20.48
2022-08-07T16:42:06.833Z,20.44
2022-08-07T16:45:15.121Z,20.41
2022-08-07T16:48:13.433Z,20.44
2022-08-07T17:14:33.238Z,19.90
2022-08-07T17:17:06.404Z,19.91
2022-08-07T17:20:01.832Z,19.93
2022-08-07T17:22:54.897Z,19.90
2022-08-07T17:25:51.896Z,19.93
2022-08-07T17:28:19.366Z,19.95
2022-08-07T17:31:44.059Z,19.93
2022-08-07T17:35:32.853Z,19.92
2022-08-07T17:38:33.482Z,19.91
2022-08-07T17:42:04.984Z,19.90
2022-08-07T17:44:42.814Z,19.91
2022-08-07T17:47:08.449Z,19.95
2022-08-07T17:49:45.388Z,19.91
2022-08-07T17:52:33.813Z,19.91
2022-08-07T17:55:54.134Z,19.89
2022-08-07T17:58:08.475Z,19.83
2022-08-07T18:00:48.542Z,19.80
2022-08-07T18:04:04.518Z,19.73
2022-08-07T18:06:38.928Z,19.71
2022-08-07T18:09:16.093Z,19.67
2022-08-07T18:12:19.722Z,19.60
2022-08-07T18:15:13.808Z,19.50
2022-08-07T18:18:45.045Z,19.47
2022-08-07T18:21:02.364Z,19.46
2022-08-07T18:23:59.609Z,19.42
2022-08-07T18:27:12.275Z,19.38
2022-08-07T18:30:31.518Z,19.38
2022-08-07T18:33:34.758Z,19.37
2022-08-07T18:36:33.089Z,19.38
2022-08-07T18:40:09.006Z,19.30
2022-08-07T18:42:29.637Z,19.29
2022-08-07T18:45:43.303Z,19.30
2022-08-07T18:50:05.463Z,19.22
2022-08-07T19:02:17.389Z,19.02
2022-08-07T19:10:31.780Z,19.10
2022-08-07T19:13:23.212Z,19.11
2022-08-07T19:17:05.085Z,19.07
2022-08-07T19:19:17.501Z,19.06
2022-08-07T19:21:56.275Z,19.05
2022-08-07T19:24:56.956Z,19.07
2022-08-07T19:28:56.595Z,19.09
2022-08-07T19:31:00.840Z,19.07
2022-08-07T19:33:08.237Z,19.06
2022-08-07T19:35:42.475Z,19.06
2022-08-07T19:38:17.837Z,19.03
2022-08-07T19:40:50.384Z,19.02
2022-08-07T19:43:50.096Z,19.02
2022-08-07T19:46:26.659Z,18.96
2022-08-07T19:49:15.171Z,18.86
2022-08-07T19:51:53.162Z,18.83
2022-08-07T19:54:30.030Z,18.80
2022-08-07T19:58:04.472Z,18.78
2022-08-07T20:00:08.951Z,18.72
2022-08-07T20:03:05.123Z,18.69
2022-08-07T20:06:03.551Z,18.62
2022-08-07T20:08:36.668Z,18.60
2022-08-07T20:11:23.072Z,18.57
2022-08-07T20:14:04.665Z,18.57
2022-08-07T20:16:36.918Z,18.55
2022-08-07T20:19:11.098Z,18.52
2022-08-07T20:21:47.133Z,18.48
2022-08-07T20:24:22.968Z,18.39
2022-08-07T20:26:54.352Z,18.29
2022-08-07T20:29:47.818Z,18.29
2022-08-07T20:32:22.881Z,18.20
2022-08-07T20:34:56.511Z,18.08
2022-08-07T20:37:59.299Z,18.01
2022-08-07T20:40:32.250Z,18.00
2022-08-07T20:43:14.478Z,18.00
2022-08-07T20:46:27.149Z,18.03
2022-08-07T20:48:58.036Z,18.03
2022-08-07T20:51:31.454Z,18.04
2022-08-07T20:54:11.967Z,18.07
2022-08-07T20:56:48.209Z,18.03
2022-08-07T21:00:05.318Z,18.07
2022-08-07T21:02:35.006Z,18.08
2022-08-07T21:05:16.586Z,18.10
2022-08-07T21:07:49.664Z,18.11
2022-08-07T21:10:29.560Z,17.95
2022-08-07T21:13:00.782Z,17.97
2022-08-07T21:15:48.013Z,17.95
2022-08-07T21:18:27.888Z,17.96
2022-08-07T21:21:00.536Z,17.96
2022-08-07T21:24:22.118Z,17.94
2022-08-07T21:27:01.639Z,17.90
2022-08-07T21:29:53.404Z,17.82
2022-08-07T21:32:43.006Z,17.75
2022-08-07T21:35:34.625Z,17.70
2022-08-07T21:38:27.715Z,17.72
2022-08-07T21:41:00.370Z,17.78
2022-08-07T21:43:55.919Z,17.84
2022-08-07T21:46:36.463Z,17.91
2022-08-07T21:49:40.700Z,17.97
2022-08-07T21:53:10.657Z,17.95
2022-08-07T21:56:36.208Z,17.95
2022-08-07T21:59:21.429Z,17.93
2022-08-07T22:02:07.796Z,17.90
2022-08-07T22:04:53.967Z,17.87
2022-08-07T22:07:31.908Z,17.88
2022-08-07T22:10:20.855Z,17.90
2022-08-07T22:12:55.467Z,17.88
2022-08-07T22:16:43.246Z,17.86
2022-08-07T22:19:30.118Z,17.82
2022-08-07T22:22:28.663Z,17.82
2022-08-07T22:25:11.096Z,17.83
2022-08-07T22:28:19.759Z,17.86
2022-08-07T22:30:53.008Z,17.90
2022-08-07T22:33:50.957Z,17.89
2022-08-07T22:36:58.912Z,17.86
2022-08-07T22:39:54.015Z,17.84
2022-08-07T22:42:29.348Z,17.86
2022-08-07T22:46:04.472Z,17.87
2022-08-07T22:48:54.994Z,17.86
2022-08-07T22:51:51.881Z,17.83
2022-08-07T22:55:17.305Z,17.87
2022-08-07T22:58:07.950Z,17.85
2022-08-07T23:00:46.118Z,17.83
2022-08-07T23:03:57.929Z,17.80
2022-08-07T23:06:51.546Z,17.79
2022-08-07T23:10:03.961Z,17.78
2022-08-07T23:13:04.858Z,17.77
2022-08-07T23:16:08.746Z,17.74
2022-08-07T23:19:38.724Z,17.63
2022-08-07T23:22:52.277Z,17.62
2022-08-07T23:25:41.579Z,17.63
2022-08-07T23:28:54.395Z,17.64
2022-08-07T23:34:21.411Z,17.71
2022-08-07T23:35:02.351Z,17.72
2022-08-07T23:38:36.936Z,17.74
2022-08-07T23:41:47.419Z,17.76
2022-08-07T23:44:57.957Z,17.74
2022-08-07T23:48:02.840Z,17.75
2022-08-07T23:50:38.076Z,17.82
2022-08-07T23:53:49.724Z,17.75
